sensor_id;sensor_type;location;lat;lon;timestamp;P1;durP1;ratioP1;P2;durP2;ratioP2
57643;SDS011;43474;46.510;6.686;2022-11-02T00:00:55;7.63;;;3.40;;
57643;SDS011;43474;46.510;6.686;2022-11-02T00:03:29;5.80;;;3.22;;
57643;SDS011;43474;46.510;6.686;2022-11-02T00:05:55;8.98;;;3.28;;
57643;SDS011;43474;46.510;6.686;2022-11-02T00:08:20;5.03;;;3.45;;
57643;SDS011;43474;46.510;6.686;2022-11-02T00:10:46;7.95;;;3.25;;
57643;SDS011;43474;46.510;6.686;2022-11-02T00:13:11;7.38;;;3.45;;
57643;SDS011;43474;46.510;6.686;2022-11-02T00:15:37;8.45;;;3.40;;
57643;SDS011;43474;46.510;6.686;2022-11-02T00:18:04;5.75;;;2.63;;
57643;SDS011;43474;46.510;6.686;2022-11-02T00:20:33;6.35;;;3.47;;
57643;SDS011;43474;46.510;6.686;2022-11-02T00:23:00;7.78;;;3.20;;
57643;SDS011;43474;46.510;6.686;2022-11-02T00:25:26;12.05;;;3.67;;
57643;SDS011;43474;46.510;6.686;2022-11-02T00:27:53;8.88;;;3.50;;
57643;SDS011;43474;46.510;6.686;2022-11-02T00:30:19;5.88;;;3.25;;
57643;SDS011;43474;46.510;6.686;2022-11-02T00:32:45;6.03;;;3.30;;
57643;SDS011;43474;46.510;6.686;2022-11-02T00:35:11;5.70;;;3.50;;
57643;SDS011;43474;46.510;6.686;2022-11-02T00:37:37;6.65;;;3.22;;
57643;SDS011;43474;46.510;6.686;2022-11-02T00:40:03;8.50;;;3.72;;
57643;SDS011;43474;46.510;6.686;2022-11-02T00:42:29;7.15;;;3.75;;
57643;SDS011;43474;46.510;6.686;2022-11-02T00:44:55;7.18;;;3.45;;
57643;SDS011;43474;46.510;6.686;2022-11-02T00:47:20;6.47;;;3.30;;
57643;SDS011;43474;46.510;6.686;2022-11-02T00:49:46;10.00;;;3.85;;
57643;SDS011;43474;46.510;6.686;2022-11-02T00:52:12;7.13;;;3.97;;
57643;SDS011;43474;46.510;6.686;2022-11-02T00:54:37;8.35;;;3.38;;
57643;SDS011;43474;46.510;6.686;2022-11-02T00:57:03;6.72;;;3.63;;
57643;SDS011;43474;46.510;6.686;2022-11-02T00:59:28;8.40;;;3.53;;
57643;SDS011;43474;46.510;6.686;2022-11-02T01:01:54;4.55;;;3.08;;
57643;SDS011;43474;46.510;6.686;2022-11-02T01:04:19;8.10;;;3.42;;
57643;SDS011;43474;46.510;6.686;2022-11-02T01:06:45;11.10;;;3.65;;
57643;SDS011;43474;46.510;6.686;2022-11-02T01:09:12;7.63;;;3.58;;
57643;SDS011;43474;46.510;6.686;2022-11-02T01:11:39;7.43;;;3.45;;
57643;SDS011;43474;46.510;6.686;2022-11-02T01:14:05;10.13;;;3.75;;
57643;SDS011;43474;46.510;6.686;2022-11-02T01:16:31;7.93;;;3.30;;
57643;SDS011;43474;46.510;6.686;2022-11-02T01:18:57;9.18;;;3.63;;
57643;SDS011;43474;46.510;6.686;2022-11-02T01:21:23;7.40;;;3.42;;
57643;SDS011;43474;46.510;6.686;2022-11-02T01:23:49;7.90;;;3.20;;
57643;SDS011;43474;46.510;6.686;2022-11-02T01:26:15;9.23;;;3.13;;
57643;SDS011;43474;46.510;6.686;2022-11-02T01:28:41;9.63;;;3.08;;
57643;SDS011;43474;46.510;6.686;2022-11-02T01:31:07;11.73;;;3.67;;
57643;SDS011;43474;46.510;6.686;2022-11-02T01:33:33;8.82;;;3.33;;
57643;SDS011;43474;46.510;6.686;2022-11-02T01:36:01;10.63;;;3.70;;
57643;SDS011;43474;46.510;6.686;2022-11-02T01:38:31;11.85;;;3.50;;
57643;SDS011;43474;46.510;6.686;2022-11-02T01:40:58;6.47;;;3.25;;
57643;SDS011;43474;46.510;6.686;2022-11-02T01:43:25;8.95;;;3.22;;
57643;SDS011;43474;46.510;6.686;2022-11-02T01:45:57;5.90;;;3.10;;
57643;SDS011;43474;46.510;6.686;2022-11-02T01:48:42;7.00;;;3.35;;
57643;SDS011;43474;46.510;6.686;2022-11-02T01:51:29;8.18;;;3.30;;
57643;SDS011;43474;46.510;6.686;2022-11-02T01:53:59;8.38;;;3.65;;
57643;SDS011;43474;46.510;6.686;2022-11-02T01:56:33;8.48;;;3.40;;
57643;SDS011;43474;46.510;6.686;2022-11-02T01:59:01;7.00;;;3.60;;
57643;SDS011;43474;46.510;6.686;2022-11-02T02:01:30;5.57;;;3.60;;
57643;SDS011;43474;46.510;6.686;2022-11-02T02:03:56;11.98;;;4.80;;
57643;SDS011;43474;46.510;6.686;2022-11-02T02:06:23;10.10;;;3.38;;
57643;SDS011;43474;46.510;6.686;2022-11-02T02:08:52;7.47;;;3.17;;
57643;SDS011;43474;46.510;6.686;2022-11-02T02:11:24;9.93;;;3.55;;
57643;SDS011;43474;46.510;6.686;2022-11-02T02:13:53;11.57;;;3.92;;
57643;SDS011;43474;46.510;6.686;2022-11-02T02:18:58;7.72;;;3.30;;
57643;SDS011;43474;46.510;6.686;2022-11-02T02:30:00;7.38;;;3.38;;
57643;SDS011;43474;46.510;6.686;2022-11-02T02:38:05;6.78;;;3.40;;
57643;SDS011;43474;46.510;6.686;2022-11-02T02:40:33;8.02;;;3.80;;
57643;SDS011;43474;46.510;6.686;2022-11-02T02:43:14;6.53;;;3.60;;
57643;SDS011;43474;46.510;6.686;2022-11-02T02:45:50;14.38;;;3.63;;
57643;SDS011;43474;46.510;6.686;2022-11-02T02:48:20;7.47;;;3.50;;
57643;SDS011;43474;46.510;6.686;2022-11-02T02:53:32;7.72;;;3.63;;
57643;SDS011;43474;46.510;6.686;2022-11-02T02:56:02;6.65;;;3.28;;
57643;SDS011;43474;46.510;6.686;2022-11-02T02:58:31;11.23;;;4.05;;
57643;SDS011;43474;46.510;6.686;2022-11-02T03:01:12;5.93;;;3.40;;
57643;SDS011;43474;46.510;6.686;2022-11-02T03:03:40;5.25;;;3.67;;
57643;SDS011;43474;46.510;6.686;2022-11-02T03:12:01;6.60;;;3.42;;
57643;SDS011;43474;46.510;6.686;2022-11-02T03:17:34;6.97;;;3.60;;
57643;SDS011;43474;46.510;6.686;2022-11-02T03:20:27;7.65;;;4.18;;
57643;SDS011;43474;46.510;6.686;2022-11-02T03:23:17;9.90;;;3.38;;
57643;SDS011;43474;46.510;6.686;2022-11-02T03:26:03;9.75;;;3.70;;
57643;SDS011;43474;46.510;6.686;2022-11-02T03:31:09;12.95;;;3.30;;
57643;SDS011;43474;46.510;6.686;2022-11-02T03:36:18;5.35;;;3.10;;
57643;SDS011;43474;46.510;6.686;2022-11-02T03:39:06;8.20;;;3.20;;
57643;SDS011;43474;46.510;6.686;2022-11-02T03:41:34;10.68;;;3.70;;
57643;SDS011;43474;46.510;6.686;2022-11-02T03:44:05;9.07;;;3.33;;
57643;SDS011;43474;46.510;6.686;2022-11-02T03:46:33;6.00;;;3.33;;
57643;SDS011;43474;46.510;6.686;2022-11-02T03:49:03;7.13;;;3.35;;
57643;SDS011;43474;46.510;6.686;2022-11-02T03:51:32;9.40;;;3.15;;
57643;SDS011;43474;46.510;6.686;2022-11-02T03:54:04;8.68;;;3.45;;
57643;SDS011;43474;46.510;6.686;2022-11-02T03:56:40;8.50;;;3.35;;
57643;SDS011;43474;46.510;6.686;2022-11-02T03:59:10;7.65;;;3.53;;
57643;SDS011;43474;46.510;6.686;2022-11-02T04:01:41;8.73;;;3.45;;
57643;SDS011;43474;46.510;6.686;2022-11-02T04:04:09;6.95;;;2.83;;
57643;SDS011;43474;46.510;6.686;2022-11-02T04:06:36;7.50;;;3.08;;
57643;SDS011;43474;46.510;6.686;2022-11-02T04:09:02;4.63;;;2.70;;
57643;SDS011;43474;46.510;6.686;2022-11-02T04:11:29;10.65;;;3.83;;
57643;SDS011;43474;46.510;6.686;2022-11-02T04:14:14;7.00;;;2.70;;
57643;SDS011;43474;46.510;6.686;2022-11-02T04:16:59;6.18;;;2.83;;
57643;SDS011;43474;46.510;6.686;2022-11-02T04:19:43;4.60;;;2.70;;
57643;SDS011;43474;46.510;6.686;2022-11-02T04:22:08;8.05;;;2.55;;
57643;SDS011;43474;46.510;6.686;2022-11-02T04:24:53;8.20;;;3.50;;
57643;SDS011;43474;46.510;6.686;2022-11-02T04:27:37;7.63;;;3.20;;
57643;SDS011;43474;46.510;6.686;2022-11-02T04:30:04;6.75;;;2.40;;
57643;SDS011;43474;46.510;6.686;2022-11-02T04:32:34;6.95;;;2.88;;
57643;SDS011;43474;46.510;6.686;2022-11-02T04:35:20;5.13;;;2.75;;
57643;SDS011;43474;46.510;6.686;2022-11-02T04:37:46;7.32;;;2.30;;
57643;SDS011;43474;46.510;6.686;2022-11-02T04:40:30;6.00;;;2.72;;
57643;SDS011;43474;46.510;6.686;2022-11-02T04:42:55;6.35;;;2.83;;
57643;SDS011;43474;46.510;6.686;2022-11-02T04:45:21;7.68;;;3.17;;
57643;SDS011;43474;46.510;6.686;2022-11-02T04:47:47;11.05;;;2.95;;
57643;SDS011;43474;46.510;6.686;2022-11-02T04:50:12;8.48;;;2.95;;
57643;SDS011;43474;46.510;6.686;2022-11-02T04:52:38;5.20;;;2.10;;
57643;SDS011;43474;46.510;6.686;2022-11-02T04:55:03;7.47;;;2.55;;
57643;SDS011;43474;46.510;6.686;2022-11-02T04:57:29;6.97;;;2.38;;
57643;SDS011;43474;46.510;6.686;2022-11-02T04:59:55;9.68;;;2.75;;
57643;SDS011;43474;46.510;6.686;2022-11-02T05:02:20;6.85;;;2.90;;
57643;SDS011;43474;46.510;6.686;2022-11-02T05:04:46;6.47;;;3.00;;
57643;SDS011;43474;46.510;6.686;2022-11-02T05:07:11;3.38;;;2.40;;
57643;SDS011;43474;46.510;6.686;2022-11-02T05:09:37;5.35;;;2.38;;
57643;SDS011;43474;46.510;6.686;2022-11-02T05:12:03;5.95;;;2.55;;
57643;SDS011;43474;46.510;6.686;2022-11-02T05:14:31;4.80;;;2.40;;
57643;SDS011;43474;46.510;6.686;2022-11-02T05:16:57;6.93;;;2.83;;
57643;SDS011;43474;46.510;6.686;2022-11-02T05:19:24;7.30;;;2.90;;
57643;SDS011;43474;46.510;6.686;2022-11-02T05:21:49;8.82;;;2.83;;
57643;SDS011;43474;46.510;6.686;2022-11-02T05:24:15;11.25;;;3.08;;
57643;SDS011;43474;46.510;6.686;2022-11-02T05:26:40;9.02;;;3.20;;
57643;SDS011;43474;46.510;6.686;2022-11-02T05:29:06;9.27;;;2.90;;
57643;SDS011;43474;46.510;6.686;2022-11-02T05:31:32;10.15;;;3.00;;
57643;SDS011;43474;46.510;6.686;2022-11-02T05:33:58;7.00;;;3.00;;
57643;SDS011;43474;46.510;6.686;2022-11-02T05:36:23;6.50;;;2.80;;
57643;SDS011;43474;46.510;6.686;2022-11-02T05:38:53;7.32;;;4.05;;
57643;SDS011;43474;46.510;6.686;2022-11-02T05:41:19;5.57;;;2.97;;
57643;SDS011;43474;46.510;6.686;2022-11-02T05:43:45;5.10;;;2.60;;
57643;SDS011;43474;46.510;6.686;2022-11-02T05:46:11;7.43;;;2.85;;
57643;SDS011;43474;46.510;6.686;2022-11-02T05:48:39;6.18;;;3.08;;
57643;SDS011;43474;46.510;6.686;2022-11-02T05:51:05;7.93;;;3.03;;
57643;SDS011;43474;46.510;6.686;2022-11-02T05:53:31;6.53;;;3.50;;
57643;SDS011;43474;46.510;6.686;2022-11-02T05:56:02;7.13;;;3.30;;
57643;SDS011;43474;46.510;6.686;2022-11-02T05:58:29;7.10;;;3.00;;
57643;SDS011;43474;46.510;6.686;2022-11-02T06:00:59;7.25;;;3.42;;
57643;SDS011;43474;46.510;6.686;2022-11-02T06:03:26;6.17;;;2.53;;
57643;SDS011;43474;46.510;6.686;2022-11-02T06:05:58;6.65;;;2.70;;
57643;SDS011;43474;46.510;6.686;2022-11-02T06:08:25;7.35;;;3.17;;
57643;SDS011;43474;46.510;6.686;2022-11-02T06:10:51;4.72;;;2.97;;
57643;SDS011;43474;46.510;6.686;2022-11-02T06:13:16;6.05;;;3.05;;
57643;SDS011;43474;46.510;6.686;2022-11-02T06:15:42;7.28;;;3.22;;
57643;SDS011;43474;46.510;6.686;2022-11-02T06:18:07;6.28;;;3.45;;
57643;SDS011;43474;46.510;6.686;2022-11-02T06:20:33;5.82;;;3.75;;
57643;SDS011;43474;46.510;6.686;2022-11-02T06:22:58;7.18;;;3.45;;
57643;SDS011;43474;46.510;6.686;2022-11-02T06:25:24;4.60;;;3.00;;
57643;SDS011;43474;46.510;6.686;2022-11-02T06:27:52;8.25;;;3.35;;
57643;SDS011;43474;46.510;6.686;2022-11-02T06:30:21;7.93;;;3.40;;
57643;SDS011;43474;46.510;6.686;2022-11-02T06:32:50;4.82;;;3.40;;
57643;SDS011;43474;46.510;6.686;2022-11-02T06:35:17;9.70;;;3.72;;
57643;SDS011;43474;46.510;6.686;2022-11-02T06:37:45;8.00;;;3.17;;
57643;SDS011;43474;46.510;6.686;2022-11-02T06:40:11;6.07;;;3.05;;
57643;SDS011;43474;46.510;6.686;2022-11-02T06:42:38;8.57;;;2.92;;
57643;SDS011;43474;46.510;6.686;2022-11-02T06:45:05;5.35;;;2.90;;
57643;SDS011;43474;46.510;6.686;2022-11-02T06:47:32;12.70;;;3.22;;
57643;SDS011;43474;46.510;6.686;2022-11-02T06:49:59;7.35;;;3.22;;
57643;SDS011;43474;46.510;6.686;2022-11-02T06:52:26;9.73;;;3.08;;
57643;SDS011;43474;46.510;6.686;2022-11-02T06:54:52;7.80;;;3.15;;
57643;SDS011;43474;46.510;6.686;2022-11-02T06:57:17;7.80;;;3.38;;
57643;SDS011;43474;46.510;6.686;2022-11-02T06:59:43;5.88;;;3.30;;
57643;SDS011;43474;46.510;6.686;2022-11-02T07:02:09;8.18;;;3.10;;
57643;SDS011;43474;46.510;6.686;2022-11-02T07:04:35;7.20;;;3.08;;
57643;SDS011;43474;46.510;6.686;2022-11-02T07:07:00;5.53;;;2.70;;
57643;SDS011;43474;46.510;6.686;2022-11-02T07:09:26;4.75;;;3.00;;
57643;SDS011;43474;46.510;6.686;2022-11-02T07:11:51;7.68;;;3.13;;
57643;SDS011;43474;46.510;6.686;2022-11-02T07:14:17;3.95;;;2.70;;
57643;SDS011;43474;46.510;6.686;2022-11-02T07:16:43;7.43;;;3.08;;
57643;SDS011;43474;46.510;6.686;2022-11-02T07:19:08;7.45;;;2.92;;
57643;SDS011;43474;46.510;6.686;2022-11-02T07:21:34;5.20;;;2.85;;
57643;SDS011;43474;46.510;6.686;2022-11-02T07:23:59;4.55;;;2.95;;
57643;SDS011;43474;46.510;6.686;2022-11-02T07:26:25;7.32;;;2.80;;
57643;SDS011;43474;46.510;6.686;2022-11-02T07:28:51;9.27;;;3.13;;
57643;SDS011;43474;46.510;6.686;2022-11-02T07:31:17;4.38;;;2.53;;
57643;SDS011;43474;46.510;6.686;2022-11-02T07:33:42;7.15;;;3.60;;
57643;SDS011;43474;46.510;6.686;2022-11-02T07:36:08;5.18;;;3.03;;
57643;SDS011;43474;46.510;6.686;2022-11-02T07:38:34;4.38;;;2.92;;
57643;SDS011;43474;46.510;6.686;2022-11-02T07:41:00;4.63;;;3.20;;
57643;SDS011;43474;46.510;6.686;2022-11-02T07:43:25;4.85;;;3.25;;
57643;SDS011;43474;46.510;6.686;2022-11-02T07:45:51;9.63;;;3.72;;
57643;SDS011;43474;46.510;6.686;2022-11-02T07:48:17;7.10;;;3.72;;
57643;SDS011;43474;46.510;6.686;2022-11-02T07:50:42;5.07;;;3.20;;
57643;SDS011;43474;46.510;6.686;2022-11-02T07:53:08;7.85;;;3.40;;
57643;SDS011;43474;46.510;6.686;2022-11-02T07:55:33;4.68;;;3.30;;
57643;SDS011;43474;46.510;6.686;2022-11-02T07:58:03;5.85;;;2.45;;
57643;SDS011;43474;46.510;6.686;2022-11-02T08:00:32;7.50;;;3.10;;
57643;SDS011;43474;46.510;6.686;2022-11-02T08:03:01;5.32;;;2.60;;
57643;SDS011;43474;46.510;6.686;2022-11-02T08:05:28;5.50;;;2.90;;
57643;SDS011;43474;46.510;6.686;2022-11-02T08:07:57;6.57;;;3.15;;
57643;SDS011;43474;46.510;6.686;2022-11-02T08:12:53;7.30;;;2.80;;
57643;SDS011;43474;46.510;6.686;2022-11-02T08:15:18;6.68;;;2.92;;
57643;SDS011;43474;46.510;6.686;2022-11-02T08:17:44;11.32;;;2.92;;
57643;SDS011;43474;46.510;6.686;2022-11-02T08:20:10;8.55;;;3.00;;
57643;SDS011;43474;46.510;6.686;2022-11-02T08:22:39;7.50;;;3.00;;
57643;SDS011;43474;46.510;6.686;2022-11-02T08:25:05;7.13;;;3.25;;
57643;SDS011;43474;46.510;6.686;2022-11-02T08:27:32;8.35;;;2.90;;
57643;SDS011;43474;46.510;6.686;2022-11-02T08:29:57;7.20;;;2.75;;
57643;SDS011;43474;46.510;6.686;2022-11-02T08:32:23;5.70;;;2.72;;
57643;SDS011;43474;46.510;6.686;2022-11-02T08:34:49;6.07;;;2.80;;
57643;SDS011;43474;46.510;6.686;2022-11-02T08:37:14;8.45;;;3.00;;
57643;SDS011;43474;46.510;6.686;2022-11-02T08:39:40;8.55;;;2.72;;
57643;SDS011;43474;46.510;6.686;2022-11-02T08:42:06;5.55;;;2.40;;
57643;SDS011;43474;46.510;6.686;2022-11-02T08:44:31;6.50;;;2.70;;
57643;SDS011;43474;46.510;6.686;2022-11-02T08:46:57;6.25;;;2.75;;
57643;SDS011;43474;46.510;6.686;2022-11-02T08:49:22;10.68;;;2.65;;
57643;SDS011;43474;46.510;6.686;2022-11-02T08:51:48;7.18;;;2.53;;
57643;SDS011;43474;46.510;6.686;2022-11-02T08:54:14;6.72;;;2.70;;
57643;SDS011;43474;46.510;6.686;2022-11-02T08:56:40;6.03;;;2.58;;
57643;SDS011;43474;46.510;6.686;2022-11-02T08:59:05;8.57;;;3.47;;
57643;SDS011;43474;46.510;6.686;2022-11-02T09:01:31;5.43;;;2.55;;
57643;SDS011;43474;46.510;6.686;2022-11-02T09:03:57;7.72;;;2.33;;
57643;SDS011;43474;46.510;6.686;2022-11-02T09:06:23;7.07;;;2.22;;
57643;SDS011;43474;46.510;6.686;2022-11-02T09:08:48;8.85;;;2.28;;
57643;SDS011;43474;46.510;6.686;2022-11-02T09:11:14;9.68;;;2.38;;
57643;SDS011;43474;46.510;6.686;2022-11-02T09:13:40;5.80;;;2.50;;
57643;SDS011;43474;46.510;6.686;2022-11-02T09:16:06;7.90;;;2.38;;
57643;SDS011;43474;46.510;6.686;2022-11-02T09:18:32;6.40;;;2.83;;
57643;SDS011;43474;46.510;6.686;2022-11-02T09:21:03;5.20;;;2.60;;
57643;SDS011;43474;46.510;6.686;2022-11-02T09:23:29;6.13;;;2.47;;
57643;SDS011;43474;46.510;6.686;2022-11-02T09:25:56;5.28;;;2.33;;
57643;SDS011;43474;46.510;6.686;2022-11-02T09:28:23;7.93;;;2.80;;
57643;SDS011;43474;46.510;6.686;2022-11-02T09:30:49;5.13;;;2.88;;
57643;SDS011;43474;46.510;6.686;2022-11-02T09:33:14;8.85;;;2.72;;
57643;SDS011;43474;46.510;6.686;2022-11-02T09:35:41;6.25;;;2.65;;
57643;SDS011;43474;46.510;6.686;2022-11-02T09:38:09;5.97;;;2.35;;
57643;SDS011;43474;46.510;6.686;2022-11-02T09:43:33;9.85;;;3.28;;
57643;SDS011;43474;46.510;6.686;2022-11-02T09:46:10;4.90;;;2.53;;
57643;SDS011;43474;46.510;6.686;2022-11-02T09:48:46;7.47;;;2.90;;
57643;SDS011;43474;46.510;6.686;2022-11-02T09:51:17;7.43;;;2.63;;
57643;SDS011;43474;46.510;6.686;2022-11-02T09:56:48;6.10;;;3.13;;
57643;SDS011;43474;46.510;6.686;2022-11-02T09:59:19;9.32;;;3.00;;
57643;SDS011;43474;46.510;6.686;2022-11-02T10:04:24;5.88;;;2.75;;
57643;SDS011;43474;46.510;6.686;2022-11-02T10:07:15;5.10;;;2.90;;
57643;SDS011;43474;46.510;6.686;2022-11-02T10:12:25;4.82;;;2.53;;
57643;SDS011;43474;46.510;6.686;2022-11-02T10:15:00;8.98;;;2.45;;
57643;SDS011;43474;46.510;6.686;2022-11-02T10:17:33;6.13;;;3.20;;
57643;SDS011;43474;46.510;6.686;2022-11-02T10:20:04;9.27;;;2.97;;
57643;SDS011;43474;46.510;6.686;2022-11-02T10:22:51;6.40;;;2.78;;
57643;SDS011;43474;46.510;6.686;2022-11-02T10:25:21;5.60;;;2.38;;
57643;SDS011;43474;46.510;6.686;2022-11-02T10:27:48;5.75;;;2.70;;
57643;SDS011;43474;46.510;6.686;2022-11-02T10:30:19;6.27;;;2.90;;
57643;SDS011;43474;46.510;6.686;2022-11-02T10:32:46;4.10;;;2.60;;
57643;SDS011;43474;46.510;6.686;2022-11-02T10:51:41;6.82;;;2.22;;
57643;SDS011;43474;46.510;6.686;2022-11-02T10:54:10;3.80;;;2.05;;
57643;SDS011;43474;46.510;6.686;2022-11-02T10:56:40;6.97;;;2.40;;
57643;SDS011;43474;46.510;6.686;2022-11-02T10:59:09;7.07;;;2.25;;
57643;SDS011;43474;46.510;6.686;2022-11-02T11:01:43;8.50;;;2.67;;
57643;SDS011;43474;46.510;6.686;2022-11-02T11:06:50;7.18;;;2.30;;
57643;SDS011;43474;46.510;6.686;2022-11-02T11:09:25;5.72;;;2.50;;
57643;SDS011;43474;46.510;6.686;2022-11-02T11:14:45;5.97;;;2.13;;
57643;SDS011;43474;46.510;6.686;2022-11-02T11:17:15;5.03;;;2.42;;
57643;SDS011;43474;46.510;6.686;2022-11-02T11:19:49;4.53;;;2.50;;
57643;SDS011;43474;46.510;6.686;2022-11-02T11:22:21;7.38;;;2.63;;
57643;SDS011;43474;46.510;6.686;2022-11-02T11:24:54;9.85;;;2.88;;
57643;SDS011;43474;46.510;6.686;2022-11-02T11:27:50;3.28;;;2.50;;
57643;SDS011;43474;46.510;6.686;2022-11-02T11:30:22;7.97;;;2.55;;
57643;SDS011;43474;46.510;6.686;2022-11-02T11:32:58;10.82;;;2.95;;
57643;SDS011;43474;46.510;6.686;2022-11-02T11:35:36;6.80;;;2.60;;
57643;SDS011;43474;46.510;6.686;2022-11-02T11:38:13;6.40;;;2.80;;
57643;SDS011;43474;46.510;6.686;2022-11-02T11:40:45;4.78;;;2.25;;
57643;SDS011;43474;46.510;6.686;2022-11-02T11:43:17;4.45;;;2.22;;
57643;SDS011;43474;46.510;6.686;2022-11-02T11:45:55;5.78;;;2.15;;
57643;SDS011;43474;46.510;6.686;2022-11-02T11:48:31;6.90;;;2.10;;
57643;SDS011;43474;46.510;6.686;2022-11-02T11:51:01;5.13;;;2.25;;
57643;SDS011;43474;46.510;6.686;2022-11-02T11:53:28;8.23;;;2.30;;
57643;SDS011;43474;46.510;6.686;2022-11-02T11:55:58;5.18;;;2.05;;
57643;SDS011;43474;46.510;6.686;2022-11-02T11:58:28;5.88;;;2.08;;
57643;SDS011;43474;46.510;6.686;2022-11-02T12:03:27;2.70;;;1.60;;
57643;SDS011;43474;46.510;6.686;2022-11-02T12:06:03;3.63;;;1.65;;
57643;SDS011;43474;46.510;6.686;2022-11-02T12:08:34;4.88;;;2.03;;
57643;SDS011;43474;46.510;6.686;2022-11-02T12:13:54;4.05;;;2.45;;
57643;SDS011;43474;46.510;6.686;2022-11-02T12:19:24;4.10;;;1.80;;
57643;SDS011;43474;46.510;6.686;2022-11-02T12:30:44;3.53;;;1.40;;
57643;SDS011;43474;46.510;6.686;2022-11-02T12:37:56;6.70;;;1.83;;
57643;SDS011;43474;46.510;6.686;2022-11-02T12:40:44;3.58;;;1.58;;
57643;SDS011;43474;46.510;6.686;2022-11-02T12:46:01;8.02;;;1.73;;
57643;SDS011;43474;46.510;6.686;2022-11-02T12:48:33;3.72;;;1.52;;
57643;SDS011;43474;46.510;6.686;2022-11-02T12:51:03;6.35;;;1.88;;
57643;SDS011;43474;46.510;6.686;2022-11-02T12:56:11;5.07;;;1.75;;
57643;SDS011;43474;46.510;6.686;2022-11-02T12:58:42;2.80;;;1.60;;
57643;SDS011;43474;46.510;6.686;2022-11-02T13:03:57;3.33;;;1.50;;
57643;SDS011;43474;46.510;6.686;2022-11-02T13:06:33;6.38;;;1.60;;
57643;SDS011;43474;46.510;6.686;2022-11-02T13:09:09;5.15;;;1.98;;
57643;SDS011;43474;46.510;6.686;2022-11-02T13:11:40;4.78;;;1.65;;
57643;SDS011;43474;46.510;6.686;2022-11-02T13:14:13;3.33;;;1.60;;
57643;SDS011;43474;46.510;6.686;2022-11-02T13:16:45;5.78;;;1.38;;
57643;SDS011;43474;46.510;6.686;2022-11-02T13:19:19;3.42;;;1.50;;
57643;SDS011;43474;46.510;6.686;2022-11-02T13:21:50;4.43;;;1.48;;
57643;SDS011;43474;46.510;6.686;2022-11-02T13:24:28;2.75;;;1.52;;
57643;SDS011;43474;46.510;6.686;2022-11-02T13:26:59;3.58;;;1.55;;
57643;SDS011;43474;46.510;6.686;2022-11-02T13:29:39;5.07;;;1.30;;
57643;SDS011;43474;46.510;6.686;2022-11-02T13:32:11;5.00;;;1.38;;
57643;SDS011;43474;46.510;6.686;2022-11-02T13:35:02;6.47;;;1.30;;
57643;SDS011;43474;46.510;6.686;2022-11-02T13:37:36;3.83;;;1.38;;
57643;SDS011;43474;46.510;6.686;2022-11-02T13:40:07;4.38;;;1.48;;
57643;SDS011;43474;46.510;6.686;2022-11-02T13:43:03;3.88;;;1.30;;
57643;SDS011;43474;46.510;6.686;2022-11-02T13:51:35;4.55;;;1.40;;
57643;SDS011;43474;46.510;6.686;2022-11-02T13:54:10;7.00;;;1.70;;
57643;SDS011;43474;46.510;6.686;2022-11-02T13:56:43;5.03;;;1.60;;
57643;SDS011;43474;46.510;6.686;2022-11-02T13:59:25;4.25;;;1.30;;
57643;SDS011;43474;46.510;6.686;2022-11-02T14:01:53;4.80;;;1.30;;
57643;SDS011;43474;46.510;6.686;2022-11-02T14:04:21;3.28;;;1.20;;
57643;SDS011;43474;46.510;6.686;2022-11-02T14:06:52;3.80;;;1.10;;
57643;SDS011;43474;46.510;6.686;2022-11-02T14:09:32;5.20;;;1.20;;
57643;SDS011;43474;46.510;6.686;2022-11-02T14:14:37;2.30;;;1.15;;
57643;SDS011;43474;46.510;6.686;2022-11-02T14:17:10;3.97;;;1.45;;
57643;SDS011;43474;46.510;6.686;2022-11-02T14:19:48;2.35;;;0.90;;
57643;SDS011;43474;46.510;6.686;2022-11-02T14:22:16;3.85;;;1.00;;
57643;SDS011;43474;46.510;6.686;2022-11-02T14:35:01;3.25;;;0.98;;
57643;SDS011;43474;46.510;6.686;2022-11-02T14:49:02;5.93;;;1.20;;
57643;SDS011;43474;46.510;6.686;2022-11-02T14:51:31;5.22;;;1.65;;
57643;SDS011;43474;46.510;6.686;2022-11-02T14:54:01;2.50;;;0.93;;
57643;SDS011;43474;46.510;6.686;2022-11-02T14:56:50;2.67;;;1.07;;
57643;SDS011;43474;46.510;6.686;2022-11-02T14:59:28;3.72;;;1.00;;
57643;SDS011;43474;46.510;6.686;2022-11-02T15:02:14;5.97;;;1.17;;
57643;SDS011;43474;46.510;6.686;2022-11-02T15:04:51;4.32;;;1.23;;
57643;SDS011;43474;46.510;6.686;2022-11-02T15:07:19;2.13;;;1.05;;
57643;SDS011;43474;46.510;6.686;2022-11-02T15:12:40;4.43;;;1.02;;
57643;SDS011;43474;46.510;6.686;2022-11-02T15:17:52;3.58;;;1.02;;
57643;SDS011;43474;46.510;6.686;2022-11-02T15:20:30;3.03;;;1.10;;
57643;SDS011;43474;46.510;6.686;2022-11-02T15:25:52;2.22;;;1.00;;
57643;SDS011;43474;46.510;6.686;2022-11-02T15:28:23;2.65;;;0.90;;
57643;SDS011;43474;46.510;6.686;2022-11-02T15:30:54;0.98;;;0.70;;
57643;SDS011;43474;46.510;6.686;2022-11-02T15:33:41;4.57;;;1.55;;
57643;SDS011;43474;46.510;6.686;2022-11-02T15:36:29;1.88;;;1.00;;
57643;SDS011;43474;46.510;6.686;2022-11-02T15:39:03;6.70;;;1.90;;
57643;SDS011;43474;46.510;6.686;2022-11-02T15:41:37;3.22;;;0.90;;
57643;SDS011;43474;46.510;6.686;2022-11-02T15:44:10;3.17;;;1.00;;
57643;SDS011;43474;46.510;6.686;2022-11-02T15:46:53;6.25;;;1.38;;
57643;SDS011;43474;46.510;6.686;2022-11-02T15:55:23;2.10;;;0.73;;
57643;SDS011;43474;46.510;6.686;2022-11-02T16:00:37;4.65;;;1.13;;
57643;SDS011;43474;46.510;6.686;2022-11-02T16:03:03;3.10;;;0.90;;
57643;SDS011;43474;46.510;6.686;2022-11-02T16:05:41;1.40;;;0.90;;
57643;SDS011;43474;46.510;6.686;2022-11-02T16:08:21;1.85;;;1.10;;
57643;SDS011;43474;46.510;6.686;2022-11-02T16:10:49;3.47;;;1.13;;
57643;SDS011;43474;46.510;6.686;2022-11-02T16:13:27;1.98;;;1.08;;
57643;SDS011;43474;46.510;6.686;2022-11-02T16:16:00;3.22;;;1.10;;
57643;SDS011;43474;46.510;6.686;2022-11-02T16:18:38;5.70;;;1.40;;
57643;SDS011;43474;46.510;6.686;2022-11-02T16:21:05;6.03;;;1.85;;
57643;SDS011;43474;46.510;6.686;2022-11-02T16:23:35;2.53;;;1.15;;
57643;SDS011;43474;46.510;6.686;2022-11-02T16:26:04;6.03;;;1.77;;
57643;SDS011;43474;46.510;6.686;2022-11-02T16:28:35;5.80;;;1.70;;
57643;SDS011;43474;46.510;6.686;2022-11-02T16:33:37;4.75;;;1.90;;
57643;SDS011;43474;46.510;6.686;2022-11-02T16:36:09;6.70;;;1.60;;
57643;SDS011;43474;46.510;6.686;2022-11-02T16:38:38;7.80;;;1.55;;
57643;SDS011;43474;46.510;6.686;2022-11-02T16:41:13;6.07;;;2.13;;
57643;SDS011;43474;46.510;6.686;2022-11-02T16:43:41;4.18;;;2.00;;
57643;SDS011;43474;46.510;6.686;2022-11-02T16:46:08;5.00;;;2.05;;
57643;SDS011;43474;46.510;6.686;2022-11-02T16:48:39;5.68;;;2.28;;
57643;SDS011;43474;46.510;6.686;2022-11-02T16:53:36;3.92;;;2.05;;
57643;SDS011;43474;46.510;6.686;2022-11-02T16:58:59;5.13;;;2.28;;
57643;SDS011;43474;46.510;6.686;2022-11-02T17:01:28;2.78;;;1.60;;
57643;SDS011;43474;46.510;6.686;2022-11-02T17:04:16;7.88;;;1.83;;
57643;SDS011;43474;46.510;6.686;2022-11-02T17:06:45;3.17;;;1.77;;
57643;SDS011;43474;46.510;6.686;2022-11-02T17:12:14;3.70;;;1.30;;
57643;SDS011;43474;46.510;6.686;2022-11-02T17:14:42;2.88;;;1.40;;
57643;SDS011;43474;46.510;6.686;2022-11-02T17:22:28;5.13;;;1.70;;
57643;SDS011;43474;46.510;6.686;2022-11-02T17:27:42;5.90;;;2.00;;
57643;SDS011;43474;46.510;6.686;2022-11-02T17:30:32;7.43;;;2.03;;
57643;SDS011;43474;46.510;6.686;2022-11-02T17:33:12;4.55;;;1.70;;
57643;SDS011;43474;46.510;6.686;2022-11-02T17:35:47;5.72;;;2.65;;
57643;SDS011;43474;46.510;6.686;2022-11-02T17:38:15;4.07;;;2.05;;
57643;SDS011;43474;46.510;6.686;2022-11-02T17:40:42;5.10;;;2.03;;
57643;SDS011;43474;46.510;6.686;2022-11-02T17:43:08;7.57;;;2.50;;
57643;SDS011;43474;46.510;6.686;2022-11-02T17:45:34;9.73;;;4.10;;
57643;SDS011;43474;46.510;6.686;2022-11-02T17:48:04;11.93;;;4.72;;
57643;SDS011;43474;46.510;6.686;2022-11-02T17:50:34;14.02;;;4.82;;